Time;durP1;ratioP1;P1;durP2;ratioP2;P2;SDS_P1;SDS_P2;PMS_P1;PMS_P2;Temp;Humidity;BMP_temperature;BMP_pressure;BME280_temperature;BME280_humidity;BME280_pressure;Samples;Min_cycle;Max_cycle;Signal;HPM_P1;HPM_P2
2021/03/10 00:02:25;;;;;;;35.97;18.10;;;2.60;96.00;;;;;;4992586;28;20872;-60
2021/03/10 00:04:51;;;;;;;39.60;19.03;;;2.60;95.80;;;;;;4987195;28;20550;-62
2021/03/10 00:07:17;;;;;;;38.53;19.20;;;2.60;95.90;;;;;;4993045;28;20184;-62
2021/03/10 00:09:42;;;;;;;31.93;17.50;;;2.60;95.80;;;;;;4975108;28;20187;-60
2021/03/10 00:12:09;;;;;;;32.00;17.50;;;2.60;95.70;;;;;;4974708;28;20215;-62
2021/03/10 00:14:34;;;;;;;31.80;17.27;;;2.60;95.60;;;;;;4980717;28;20226;-61
2021/03/10 00:17:00;;;;;;;33.97;19.37;;;2.50;95.60;;;;;;4993096;28;20442;-61
2021/03/10 00:19:26;;;;;;;37.90;18.23;;;2.50;95.60;;;;;;4992960;28;20191;-61
2021/03/10 00:21:52;;;;;;;32.40;17.07;;;2.50;95.70;;;;;;4989358;28;20203;-61
2021/03/10 00:24:18;;;;;;;33.63;18.27;;;2.50;95.70;;;;;;4993892;28;20953;-60
2021/03/10 00:26:44;;;;;;;37.57;16.97;;;2.50;95.80;;;;;;4973040;28;20195;-61
2021/03/10 00:29:10;;;;;;;32.90;17.10;;;2.40;95.90;;;;;;4989851;28;20173;-61
2021/03/10 00:34:11;;;;;;;29.40;16.60;;;2.40;95.90;;;;;;4969036;28;20591;-56
2021/03/10 00:36:36;;;;;;;35.53;17.60;;;2.40;95.90;;;;;;4970039;28;20924;-59
2021/03/10 00:39:02;;;;;;;34.20;18.17;;;2.40;96.10;;;;;;4971113;28;20647;-56
2021/03/10 00:41:28;;;;;;;32.57;17.33;;;2.30;96.20;;;;;;4970175;28;20679;-55
2021/03/10 00:43:54;;;;;;;37.70;18.67;;;2.30;96.40;;;;;;4967245;28;21903;-57
2021/03/10 00:46:19;;;;;;;32.40;17.70;;;2.30;96.60;;;;;;4949735;28;20196;-55
2021/03/10 00:48:45;;;;;;;29.77;17.07;;;2.30;96.30;;;;;;4970568;28;20188;-56
2021/03/10 00:51:10;;;;;;;31.63;18.50;;;2.30;96.40;;;;;;4971839;28;20180;-56
2021/03/10 00:53:36;;;;;;;34.73;17.43;;;2.20;96.50;;;;;;4973625;28;20204;-54
2021/03/10 00:56:02;;;;;;;33.10;16.90;;;2.20;96.50;;;;;;4971751;28;20192;-55
2021/03/10 00:58:27;;;;;;;29.67;16.43;;;2.30;96.50;;;;;;4971001;28;20231;-55
2021/03/10 01:00:53;;;;;;;35.67;16.73;;;2.30;96.50;;;;;;4968289;28;20247;-58
2021/03/10 01:03:19;;;;;;;38.97;16.40;;;2.40;96.40;;;;;;4961004;28;20260;-56
2021/03/10 01:05:45;;;;;;;29.37;16.70;;;2.40;96.20;;;;;;4968735;28;20327;-56
2021/03/10 01:08:11;;;;;;;31.80;17.73;;;2.40;96.20;;;;;;4970996;28;20185;-55
2021/03/10 01:10:39;;;;;;;33.00;17.77;;;2.40;96.20;;;;;;4968007;28;20520;-57
2021/03/10 01:13:05;;;;;;;31.33;17.27;;;2.40;96.30;;;;;;4953029;28;20463;-56
2021/03/10 01:15:31;;;;;;;30.40;17.47;;;2.40;96.40;;;;;;4968330;28;20450;-56
2021/03/10 01:17:56;;;;;;;40.63;17.80;;;2.40;96.50;;;;;;4953835;28;20444;-56
2021/03/10 01:20:24;;;;;;;32.63;17.70;;;2.40;96.70;;;;;;4967250;28;20211;-57
2021/03/10 01:22:49;;;;;;;34.97;17.90;;;2.40;96.80;;;;;;4967397;28;20211;-57
2021/03/10 01:25:16;;;;;;;36.23;19.03;;;2.40;96.80;;;;;;4968629;28;20435;-54
2021/03/10 01:27:42;;;;;;;34.30;17.90;;;2.40;96.80;;;;;;4962621;28;20288;-57
2021/03/10 01:30:11;;;;;;;32.37;17.53;;;2.40;96.80;;;;;;4965514;28;20959;-54
2021/03/10 01:32:37;;;;;;;34.53;17.10;;;2.40;97.10;;;;;;4969007;28;20479;-54
2021/03/10 01:35:05;;;;;;;35.80;17.53;;;2.40;97.10;;;;;;4970204;28;20435;-55
2021/03/10 01:37:30;;;;;;;33.70;16.60;;;2.40;97.30;;;;;;4949162;28;20513;-54
2021/03/10 01:39:57;;;;;;;33.27;17.13;;;2.40;97.20;;;;;;4956351;28;20545;-53
2021/03/10 01:42:23;;;;;;;31.67;17.23;;;2.40;97.20;;;;;;4970017;28;20679;-56
2021/03/10 01:44:49;;;;;;;32.73;18.20;;;2.50;97.10;;;;;;4966554;28;20488;-56
2021/03/10 01:47:15;;;;;;;32.33;17.17;;;2.50;97.10;;;;;;4977621;28;20425;-55
2021/03/10 01:49:41;;;;;;;33.30;17.73;;;2.50;97.10;;;;;;4949378;28;20285;-55
2021/03/10 01:52:08;;;;;;;34.40;18.23;;;2.50;97.20;;;;;;4969587;28;20986;-56
2021/03/10 01:54:35;;;;;;;31.83;17.10;;;2.40;97.20;;;;;;4964921;28;20837;-55
2021/03/10 01:57:02;;;;;;;39.87;18.43;;;2.50;97.30;;;;;;4969350;28;20434;-57
2021/03/10 01:59:27;;;;;;;30.90;17.33;;;2.50;97.30;;;;;;4948579;28;20431;-56
2021/03/10 02:01:53;;;;;;;31.70;17.80;;;2.50;97.20;;;;;;4967068;28;20475;-56
2021/03/10 02:04:19;;;;;;;30.70;17.43;;;2.50;97.20;;;;;;4960142;28;20213;-54
2021/03/10 02:06:50;;;;;;;33.37;17.97;;;2.50;97.10;;;;;;4968430;28;20553;-55
2021/03/10 02:09:51;;;;;;;30.80;16.93;;;2.50;96.90;;;;;;4965145;28;20194;-59
2021/03/10 02:12:41;;;;;;;34.77;16.83;;;2.50;97.10;;;;;;4959022;28;21072;-57
2021/03/10 02:15:21;;;;;;;33.63;17.63;;;2.40;97.20;;;;;;4967462;28;20518;-54
2021/03/10 02:17:52;;;;;;;36.50;17.83;;;2.40;97.20;;;;;;4966089;28;20865;-57
2021/03/10 02:20:32;;;;;;;29.87;16.23;;;2.40;97.30;;;;;;4960592;28;20458;-55
2021/03/10 02:23:21;;;;;;;32.03;16.80;;;2.40;97.30;;;;;;4974494;28;20842;-55
2021/03/10 02:25:59;;;;;;;30.60;15.47;;;2.40;97.30;;;;;;4940734;28;20429;-56
2021/03/10 02:28:25;;;;;;;31.80;17.87;;;2.50;97.30;;;;;;4957941;28;20445;-55
2021/03/10 02:30:53;;;;;;;33.30;17.00;;;2.50;97.20;;;;;;4958648;28;20522;-56
2021/03/10 02:33:21;;;;;;;33.37;17.53;;;2.50;97.10;;;;;;4966661;28;20536;-54
2021/03/10 02:35:52;;;;;;;35.17;18.43;;;2.60;97.10;;;;;;4970628;28;20839;-55
2021/03/10 02:38:21;;;;;;;30.73;17.27;;;2.60;97.00;;;;;;4967311;28;20811;-56
2021/03/10 02:40:48;;;;;;;32.40;18.40;;;2.60;96.90;;;;;;4968235;28;20467;-54
2021/03/10 02:43:14;;;;;;;36.17;19.40;;;2.60;96.90;;;;;;4969266;28;20532;-56
2021/03/10 02:45:41;;;;;;;36.43;19.07;;;2.60;97.00;;;;;;4951697;28;20419;-55
2021/03/10 02:48:08;;;;;;;30.10;17.20;;;2.50;97.00;;;;;;4968693;28;20439;-55
2021/03/10 02:50:35;;;;;;;36.00;16.90;;;2.50;97.10;;;;;;4963871;28;20489;-56
2021/03/10 02:53:03;;;;;;;31.63;16.87;;;2.50;97.10;;;;;;4963009;28;20456;-56
2021/03/10 02:55:31;;;;;;;32.53;17.87;;;2.50;97.00;;;;;;4958776;28;20947;-53
2021/03/10 02:57:57;;;;;;;36.57;19.47;;;2.50;97.10;;;;;;4947707;28;20439;-55
2021/03/10 03:00:24;;;;;;;32.03;16.73;;;2.50;97.20;;;;;;4967569;28;20670;-55
2021/03/10 03:02:50;;;;;;;35.60;17.77;;;2.40;97.20;;;;;;4948953;28;20862;-55
2021/03/10 03:05:17;;;;;;;37.13;19.20;;;2.40;97.30;;;;;;4966100;28;20518;-56
2021/03/10 03:07:45;;;;;;;34.47;16.40;;;2.40;97.50;;;;;;4942352;28;20439;-55
2021/03/10 03:10:18;;;;;;;37.40;18.90;;;2.30;97.60;;;;;;4971169;28;20824;-55
2021/03/10 03:12:45;;;;;;;35.97;18.30;;;2.30;97.60;;;;;;4972236;28;20811;-54
2021/03/10 03:15:15;;;;;;;32.30;16.40;;;2.30;97.80;;;;;;4969220;28;20955;-55
2021/03/10 03:17:41;;;;;;;31.43;17.50;;;2.30;97.90;;;;;;4972261;28;20425;-54
2021/03/10 03:20:08;;;;;;;36.43;17.97;;;2.40;97.80;;;;;;4970585;28;20513;-57
2021/03/10 03:22:39;;;;;;;36.00;18.77;;;2.40;97.60;;;;;;4969249;28;20459;-52
2021/03/10 03:25:07;;;;;;;36.93;17.90;;;2.40;97.40;;;;;;4964030;28;20450;-54
2021/03/10 03:27:33;;;;;;;32.90;18.07;;;2.50;97.30;;;;;;4951050;28;20435;-56
2021/03/10 03:30:01;;;;;;;34.87;16.87;;;2.50;97.20;;;;;;4960640;28;20797;-56
2021/03/10 03:32:31;;;;;;;32.17;17.33;;;2.60;97.00;;;;;;4970868;28;20486;-58
2021/03/10 03:34:58;;;;;;;33.83;17.90;;;2.60;96.90;;;;;;4968848;28;20469;-54
2021/03/10 03:37:25;;;;;;;34.60;17.90;;;2.70;96.70;;;;;;4978726;28;21200;-57
2021/03/10 03:39:52;;;;;;;28.87;16.83;;;2.70;96.50;;;;;;4969109;28;20440;-54
2021/03/10 03:42:19;;;;;;;33.70;18.10;;;2.80;96.40;;;;;;4971017;28;20457;-54
2021/03/10 03:44:46;;;;;;;35.27;18.67;;;2.80;96.30;;;;;;4969171;28;20587;-54
2021/03/10 03:47:13;;;;;;;34.53;17.93;;;2.80;96.10;;;;;;4969734;28;20804;-53
2021/03/10 03:49:47;;;;;;;35.30;19.73;;;2.80;96.00;;;;;;4969863;28;20464;-55
2021/03/10 03:52:13;;;;;;;37.80;17.90;;;2.90;96.00;;;;;;4969717;28;20460;-53
2021/03/10 03:54:39;;;;;;;36.10;18.07;;;2.90;95.90;;;;;;4979113;28;20474;-53
2021/03/10 03:57:06;;;;;;;35.17;17.37;;;2.90;95.90;;;;;;4968923;28;20517;-54
2021/03/10 03:59:31;;;;;;;37.43;18.33;;;2.90;95.90;;;;;;4972865;28;20200;-54
2021/03/10 04:01:57;;;;;;;37.90;19.10;;;2.90;95.90;;;;;;4967247;28;20965;-53
2021/03/10 04:04:23;;;;;;;34.27;18.23;;;2.90;96.00;;;;;;4964967;28;20196;-57
2021/03/10 04:06:49;;;;;;;40.57;20.07;;;2.90;96.00;;;;;;4969242;28;20217;-56
2021/03/10 04:09:15;;;;;;;39.83;17.50;;;2.90;96.00;;;;;;4971208;28;20195;-56
2021/03/10 04:11:45;;;;;;;35.30;18.97;;;2.80;96.20;;;;;;4966632;28;20809;-55
2021/03/10 04:14:11;;;;;;;33.77;18.43;;;2.80;96.30;;;;;;4969947;28;20464;-55
2021/03/10 04:16:37;;;;;;;35.40;18.00;;;2.70;96.60;;;;;;4975377;28;20424;-56
2021/03/10 04:19:03;;;;;;;36.33;18.97;;;2.70;96.90;;;;;;4969201;28;20435;-54
2021/03/10 04:21:29;;;;;;;34.33;19.03;;;2.70;97.00;;;;;;4964830;28;20477;-58
2021/03/10 04:23:55;;;;;;;37.53;20.23;;;2.70;97.00;;;;;;4966518;28;20456;-56
2021/03/10 04:26:20;;;;;;;44.87;18.43;;;2.70;96.80;;;;;;4969526;28;20274;-53
2021/03/10 04:28:46;;;;;;;35.43;18.80;;;2.70;96.80;;;;;;4961198;28;20206;-55
2021/03/10 04:31:12;;;;;;;32.00;17.40;;;2.70;96.80;;;;;;4948348;28;20203;-59
2021/03/10 04:33:38;;;;;;;35.43;19.93;;;2.70;96.90;;;;;;4968892;28;20650;-55
2021/03/10 04:36:06;;;;;;;42.80;21.23;;;2.70;97.00;;;;;;4970111;28;20502;-55
2021/03/10 04:38:32;;;;;;;39.60;21.00;;;2.70;97.00;;;;;;4962001;28;20448;-55
2021/03/10 04:40:57;;;;;;;34.83;19.20;;;2.60;97.20;;;;;;4969809;28;21034;-54
2021/03/10 04:43:23;;;;;;;41.20;19.77;;;2.60;97.60;;;;;;4971184;28;20243;-55
2021/03/10 04:45:49;;;;;;;39.70;21.43;;;2.50;97.90;;;;;;4974701;28;20242;-58
2021/03/10 04:48:15;;;;;;;38.73;20.73;;;2.50;98.10;;;;;;4969673;28;20449;-54
2021/03/10 04:50:41;;;;;;;38.40;19.40;;;2.50;98.30;;;;;;4968300;28;20318;-54
2021/03/10 04:53:06;;;;;;;38.17;20.93;;;2.50;98.60;;;;;;4970375;28;20540;-57
2021/03/10 04:55:32;;;;;;;39.50;19.13;;;2.50;98.70;;;;;;4963222;28;20257;-56
2021/03/10 04:57:58;;;;;;;42.03;21.33;;;2.50;98.90;;;;;;4969742;28;20283;-54
2021/03/10 05:00:24;;;;;;;40.97;20.27;;;2.50;99.00;;;;;;4965545;28;20213;-57
2021/03/10 05:02:50;;;;;;;40.77;20.40;;;2.40;99.10;;;;;;4961172;28;20520;-55
2021/03/10 05:05:16;;;;;;;36.33;19.27;;;2.40;99.30;;;;;;4969067;28;20185;-54
2021/03/10 05:07:41;;;;;;;38.17;20.50;;;2.40;99.40;;;;;;4968631;28;20184;-53
2021/03/10 05:10:09;;;;;;;42.97;21.63;;;2.40;99.40;;;;;;4966883;28;20189;-55
2021/03/10 05:12:35;;;;;;;34.80;19.20;;;2.40;99.60;;;;;;4968639;28;20227;-57
2021/03/10 05:15:02;;;;;;;37.03;19.70;;;2.40;99.70;;;;;;4968370;28;20792;-55
2021/03/10 05:17:28;;;;;;;41.33;20.40;;;2.40;99.80;;;;;;4951004;28;20468;-56
2021/03/10 05:19:56;;;;;;;39.00;20.40;;;2.40;99.90;;;;;;4962422;28;20524;-53
2021/03/10 05:22:22;;;;;;;41.13;20.60;;;2.40;99.90;;;;;;4965319;28;20454;-53
2021/03/10 05:24:48;;;;;;;43.70;21.93;;;2.30;99.90;;;;;;4939123;28;20427;-55
2021/03/10 05:27:14;;;;;;;39.73;21.60;;;2.30;99.90;;;;;;4962261;28;20517;-52
2021/03/10 05:29:40;;;;;;;44.00;20.90;;;2.30;99.90;;;;;;4964776;28;20893;-53
2021/03/10 05:32:06;;;;;;;41.87;21.40;;;2.30;99.90;;;;;;4962371;28;20518;-58
2021/03/10 05:34:32;;;;;;;32.00;19.10;;;2.30;99.90;;;;;;4958575;28;20547;-55
2021/03/10 05:36:58;;;;;;;35.60;18.63;;;2.40;99.90;;;;;;4961961;28;20189;-54
2021/03/10 05:39:24;;;;;;;43.07;22.70;;;2.30;99.90;;;;;;4964449;28;20742;-54
2021/03/10 05:41:50;;;;;;;39.90;20.83;;;2.40;99.90;;;;;;4957009;28;20516;-53
2021/03/10 05:44:17;;;;;;;38.67;18.97;;;2.40;99.90;;;;;;4959171;28;20445;-60
2021/03/10 05:46:42;;;;;;;35.57;19.07;;;2.40;99.90;;;;;;4955378;28;20445;-51
2021/03/10 05:49:08;;;;;;;40.40;19.17;;;2.40;99.90;;;;;;4960459;28;20505;-53
2021/03/10 05:51:35;;;;;;;43.13;21.20;;;2.40;99.90;;;;;;4961078;28;20380;-52
2021/03/10 05:54:02;;;;;;;38.50;19.90;;;2.30;99.90;;;;;;4965579;28;20437;-54
2021/03/10 05:56:28;;;;;;;39.10;19.17;;;2.40;99.90;;;;;;4947550;28;20443;-55
2021/03/10 05:59:04;;;;;;;36.37;18.37;;;2.30;99.90;;;;;;4936759;28;21431;-54
2021/03/10 06:01:30;;;;;;;34.67;19.50;;;2.30;99.90;;;;;;4963238;28;20493;-53
2021/03/10 06:03:58;;;;;;;44.27;21.30;;;2.30;99.90;;;;;;4966415;28;20533;-53
2021/03/10 06:06:25;;;;;;;38.83;18.60;;;2.20;99.90;;;;;;4970340;28;20906;-54
2021/03/10 06:08:52;;;;;;;37.10;19.97;;;2.20;99.90;;;;;;4967703;28;20427;-54
2021/03/10 06:11:27;;;;;;;34.30;18.27;;;2.20;99.90;;;;;;4961139;28;20528;-55
2021/03/10 06:13:56;;;;;;;33.63;17.37;;;2.20;99.90;;;;;;4950802;28;20536;-54
2021/03/10 06:16:24;;;;;;;38.37;19.37;;;2.20;99.90;;;;;;4969961;28;20528;-54
2021/03/10 06:19:01;;;;;;;39.87;19.73;;;2.20;99.90;;;;;;4973530;28;20926;-57
2021/03/10 06:21:27;;;;;;;35.67;18.43;;;2.20;99.90;;;;;;4948753;28;20467;-57
2021/03/10 06:24:02;;;;;;;32.80;18.43;;;2.20;99.90;;;;;;4963701;28;20474;-54
2021/03/10 06:26:30;;;;;;;35.70;18.70;;;2.20;99.90;;;;;;4939905;28;20985;-59
2021/03/10 06:28:59;;;;;;;36.53;19.57;;;2.20;99.90;;;;;;4954426;28;20439;-54
2021/03/10 06:31:25;;;;;;;40.50;18.50;;;2.20;99.90;;;;;;4957760;28;20433;-53
2021/03/10 06:34:11;;;;;;;42.30;19.73;;;2.20;99.90;;;;;;4956759;28;20497;-53
2021/03/10 06:36:42;;;;;;;39.13;19.73;;;2.30;99.90;;;;;;4960237;28;20852;-54
2021/03/10 06:39:12;;;;;;;39.60;18.10;;;2.30;99.90;;;;;;4956115;28;20501;-52
2021/03/10 06:41:42;;;;;;;41.80;19.30;;;2.40;99.90;;;;;;4945481;28;20461;-51
2021/03/10 06:44:18;;;;;;;38.67;18.90;;;2.40;99.90;;;;;;4960923;28;20566;-51
2021/03/10 06:46:58;;;;;;;37.60;18.40;;;2.40;99.90;;;;;;4958266;28;20442;-54
2021/03/10 06:49:29;;;;;;;37.10;17.80;;;2.50;99.90;;;;;;4969796;28;20443;-52
2021/03/10 06:52:06;;;;;;;36.83;20.33;;;2.60;99.90;;;;;;4968546;28;20948;-56
2021/03/10 06:54:32;;;;;;;37.00;19.20;;;2.70;99.90;;;;;;4956329;28;20962;-53
2021/03/10 06:57:10;;;;;;;40.20;21.47;;;2.80;99.90;;;;;;4951321;28;20445;-53
2021/03/10 06:59:45;;;;;;;40.03;21.27;;;2.80;99.90;;;;;;4969607;28;20241;-53
2021/03/10 07:02:19;;;;;;;39.90;20.57;;;2.90;99.90;;;;;;4961247;28;20485;-54
2021/03/10 07:04:47;;;;;;;35.47;18.57;;;3.00;99.90;;;;;;4968166;28;20418;-54
2021/03/10 07:07:16;;;;;;;38.43;20.70;;;3.10;99.90;;;;;;4969563;28;20440;-55
2021/03/10 07:09:43;;;;;;;36.07;20.00;;;3.20;99.90;;;;;;4966781;28;20451;-53
2021/03/10 07:12:11;;;;;;;37.67;19.87;;;3.20;99.60;;;;;;4959322;28;20819;-54
2021/03/10 07:14:38;;;;;;;40.57;19.93;;;3.30;99.20;;;;;;4971234;28;20801;-58
2021/03/10 07:17:07;;;;;;;43.00;22.40;;;3.30;99.40;;;;;;4960250;28;20592;-54
2021/03/10 07:19:34;;;;;;;37.23;18.97;;;3.30;99.30;;;;;;4968951;28;20491;-59
2021/03/10 07:22:06;;;;;;;40.30;21.23;;;3.30;99.20;;;;;;4944989;28;20481;-56
2021/03/10 07:25:04;;;;;;;38.30;20.40;;;3.30;98.70;;;;;;4964592;28;20513;-56
2021/03/10 07:27:38;;;;;;;39.57;19.57;;;3.30;99.00;;;;;;4939713;28;20432;-54
2021/03/10 07:30:05;;;;;;;30.33;17.53;;;3.30;99.30;;;;;;4949723;28;20447;-56
2021/03/10 07:32:31;;;;;;;34.73;18.30;;;3.40;99.10;;;;;;4957546;28;20817;-57
2021/03/10 07:35:08;;;;;;;41.83;19.50;;;3.50;98.80;;;;;;4961276;28;20444;-57
2021/03/10 07:37:35;;;;;;;33.67;18.67;;;3.50;98.10;;;;;;4965254;28;20181;-57
2021/03/10 07:40:15;;;;;;;36.40;19.87;;;3.50;98.20;;;;;;4973934;28;20456;-55
2021/03/10 07:42:55;;;;;;;40.70;19.40;;;3.60;98.20;;;;;;5010916;22;20842;-60
2021/03/10 07:45:23;;;;;;;36.23;18.20;;;3.70;98.20;;;;;;5000064;28;20874;-61
2021/03/10 07:47:53;;;;;;;33.73;17.80;;;3.80;97.50;;;;;;4994416;28;20430;-60
2021/03/10 07:50:19;;;;;;;35.63;18.37;;;3.90;97.60;;;;;;5005405;28;20462;-60
2021/03/10 07:52:53;;;;;;;31.73;17.93;;;4.00;97.50;;;;;;5011102;28;20447;-60
2021/03/10 07:55:19;;;;;;;33.70;18.23;;;4.10;97.20;;;;;;4998582;28;20457;-63
2021/03/10 07:57:55;;;;;;;35.03;18.67;;;4.10;96.90;;;;;;4980327;28;20431;-60
2021/03/10 08:00:33;;;;;;;33.43;17.17;;;4.20;95.40;;;;;;5006389;28;20550;-60
2021/03/10 08:02:59;;;;;;;29.37;15.23;;;4.20;95.80;;;;;;5007913;28;20459;-60
2021/03/10 08:05:27;;;;;;;34.83;17.90;;;4.20;95.80;;;;;;4993002;28;20419;-61
2021/03/10 08:08:09;;;;;;;36.57;17.80;;;4.30;96.00;;;;;;5003972;28;20838;-60
2021/03/10 08:10:35;;;;;;;41.50;18.70;;;4.40;95.90;;;;;;5007250;28;20522;-60
2021/03/10 08:13:20;;;;;;;35.93;16.80;;;4.50;96.00;;;;;;5007218;28;20510;-60
2021/03/10 08:15:46;;;;;;;34.03;16.83;;;4.50;95.20;;;;;;5007802;28;20481;-60
2021/03/10 08:18:12;;;;;;;32.07;16.10;;;4.60;94.70;;;;;;5011775;28;20535;-59
2021/03/10 08:20:39;;;;;;;31.43;15.67;;;4.70;93.90;;;;;;5003768;28;20462;-60
2021/03/10 08:23:06;;;;;;;37.73;17.33;;;4.70;92.60;;;;;;5007685;28;21001;-60
2021/03/10 08:25:34;;;;;;;33.90;16.33;;;4.70;92.60;;;;;;5006906;28;21014;-60
2021/03/10 08:28:13;;;;;;;34.60;17.00;;;4.70;92.10;;;;;;5009564;28;20473;-59
2021/03/10 08:30:40;;;;;;;37.87;17.10;;;4.70;92.20;;;;;;5012150;28;20475;-59
2021/03/10 08:33:07;;;;;;;28.77;15.97;;;4.70;91.80;;;;;;4990082;28;20459;-60
2021/03/10 08:35:33;;;;;;;33.93;17.90;;;4.80;92.70;;;;;;4988953;28;21080;-64
2021/03/10 08:38:01;;;;;;;31.30;17.33;;;4.90;92.10;;;;;;5003941;28;20439;-62
2021/03/10 08:40:29;;;;;;;30.47;15.30;;;5.00;92.00;;;;;;5006078;28;20200;-60
2021/03/10 08:42:59;;;;;;;29.57;15.07;;;5.00;90.60;;;;;;5009266;28;20557;-60
2021/03/10 08:45:27;;;;;;;33.43;15.17;;;5.10;90.90;;;;;;5008285;28;20494;-59
2021/03/10 08:48:07;;;;;;;28.23;16.00;;;5.10;90.40;;;;;;5010711;28;20436;-66
2021/03/10 08:50:36;;;;;;;29.47;15.20;;;5.20;89.40;;;;;;5024576;28;20430;-64
2021/03/10 08:53:03;;;;;;;27.97;13.77;;;5.30;88.40;;;;;;4991032;28;21295;-61
2021/03/10 08:55:29;;;;;;;33.80;16.40;;;5.40;88.70;;;;;;4987994;28;20443;-61
2021/03/10 08:57:59;;;;;;;28.13;14.47;;;5.50;87.40;;;;;;4991561;28;20430;-64
2021/03/10 09:00:27;;;;;;;20.80;11.43;;;5.60;86.90;;;;;;5007174;28;21005;-60
2021/03/10 09:02:54;;;;;;;24.97;12.27;;;5.70;78.90;;;;;;4995074;28;20463;-61
2021/03/10 09:05:29;;;;;;;23.20;11.83;;;5.70;74.40;;;;;;5003504;28;20442;-60
2021/03/10 09:07:57;;;;;;;27.73;13.97;;;5.70;74.20;;;;;;4997075;28;20831;-62
2021/03/10 09:10:23;;;;;;;19.00;10.53;;;5.70;77.80;;;;;;5005671;28;20439;-60
2021/03/10 09:12:51;;;;;;;20.20;11.23;;;5.80;72.80;;;;;;4984591;28;20522;-59
2021/03/10 09:15:19;;;;;;;21.97;10.50;;;5.90;70.30;;;;;;5004903;28;20447;-59
2021/03/10 09:17:45;;;;;;;18.53;9.13;;;6.00;68.60;;;;;;5006411;28;20467;-59
2021/03/10 09:20:24;;;;;;;18.30;9.93;;;6.00;65.60;;;;;;4998871;28;21047;-59
2021/03/10 09:22:51;;;;;;;18.80;9.70;;;6.00;63.20;;;;;;4987307;28;20462;-62
2021/03/10 09:25:20;;;;;;;17.20;9.20;;;6.00;63.90;;;;;;4980193;28;20833;-60
2021/03/10 09:27:46;;;;;;;19.23;9.23;;;6.00;62.80;;;;;;4996233;28;20580;-62
2021/03/10 09:30:26;;;;;;;18.77;10.50;;;6.10;62.30;;;;;;5002938;28;20538;-60
2021/03/10 09:32:51;;;;;;;21.10;8.33;;;6.20;61.90;;;;;;5004131;28;20238;-60
2021/03/10 09:35:36;;;;;;;17.17;8.33;;;6.20;59.00;;;;;;5004891;28;20891;-62
2021/03/10 09:38:11;;;;;;;16.80;9.20;;;6.20;58.40;;;;;;5003770;28;20180;-64
2021/03/10 09:40:39;;;;;;;12.60;7.27;;;6.30;57.50;;;;;;5003203;28;20532;-61
2021/03/10 09:43:11;;;;;;;13.53;7.57;;;6.30;55.50;;;;;;5004341;28;20566;-61
2021/03/10 09:45:38;;;;;;;15.27;7.27;;;6.20;54.10;;;;;;4978283;28;20443;-63
2021/03/10 09:48:09;;;;;;;12.80;7.17;;;6.20;54.00;;;;;;4981160;28;21006;-58
2021/03/10 09:50:41;;;;;;;12.53;7.63;;;6.30;55.10;;;;;;5000374;28;21010;-59
2021/03/10 09:53:13;;;;;;;15.70;7.63;;;6.40;53.30;;;;;;4984423;28;20528;-61
2021/03/10 09:55:39;;;;;;;14.90;7.90;;;6.50;54.30;;;;;;5003896;28;20440;-61
2021/03/10 09:58:06;;;;;;;16.70;8.50;;;6.80;54.70;;;;;;4981221;28;20454;-61
2021/03/10 10:00:33;;;;;;;14.10;8.23;;;7.10;53.70;;;;;;4994182;28;20204;-61
2021/03/10 10:02:59;;;;;;;14.03;7.60;;;7.20;52.10;;;;;;4997590;28;20455;-62
2021/03/10 10:05:27;;;;;;;15.33;7.97;;;7.30;52.20;;;;;;4983160;28;20443;-61
2021/03/10 10:07:56;;;;;;;16.90;7.90;;;7.40;52.40;;;;;;5001447;28;20259;-61
2021/03/10 10:10:22;;;;;;;16.40;8.17;;;7.40;51.60;;;;;;4983121;28;20447;-61
2021/03/10 10:12:49;;;;;;;14.33;8.27;;;7.50;51.70;;;;;;4999113;28;20459;-60
2021/03/10 10:15:18;;;;;;;15.27;8.30;;;7.50;52.90;;;;;;4999797;28;20542;-61
2021/03/10 10:17:47;;;;;;;14.07;7.90;;;7.50;51.60;;;;;;5004601;28;21022;-61
2021/03/10 10:20:15;;;;;;;14.80;8.90;;;7.40;51.80;;;;;;4986232;28;21231;-60
2021/03/10 10:22:41;;;;;;;20.40;9.17;;;7.40;52.20;;;;;;4998394;28;20470;-61
2021/03/10 10:25:08;;;;;;;17.80;8.27;;;7.50;52.30;;;;;;4997935;28;20522;-61
2021/03/10 10:27:34;;;;;;;13.97;7.97;;;7.50;51.30;;;;;;5000002;28;20940;-61
2021/03/10 10:29:59;;;;;;;12.77;7.40;;;7.50;51.00;;;;;;5000240;28;20431;-60
2021/03/10 10:32:26;;;;;;;12.70;6.80;;;7.50;51.00;;;;;;4995386;28;20521;-61
2021/03/10 10:34:51;;;;;;;12.23;7.10;;;7.50;49.10;;;;;;4984816;28;20962;-64
2021/03/10 10:37:18;;;;;;;12.73;6.77;;;7.50;48.60;;;;;;4995233;28;20203;-64
2021/03/10 10:39:44;;;;;;;11.10;6.60;;;7.50;48.30;;;;;;4999331;28;20203;-63
2021/03/10 10:42:10;;;;;;;12.33;6.53;;;7.60;48.30;;;;;;5001000;28;20558;-61
2021/03/10 10:44:37;;;;;;;10.10;6.00;;;7.60;47.00;;;;;;4998083;28;20534;-62
2021/03/10 10:47:03;;;;;;;11.03;6.83;;;7.60;47.50;;;;;;4995395;28;20478;-62
2021/03/10 10:49:29;;;;;;;10.80;6.43;;;7.70;48.30;;;;;;4996046;28;20435;-61
2021/03/10 10:51:55;;;;;;;11.97;6.67;;;7.80;48.80;;;;;;4996540;28;20205;-62
2021/03/10 10:54:21;;;;;;;10.33;6.83;;;7.80;48.60;;;;;;4975354;28;20681;-62
2021/03/10 10:56:47;;;;;;;13.77;7.30;;;7.80;48.50;;;;;;4992934;28;20982;-62
2021/03/10 10:59:13;;;;;;;13.33;7.60;;;7.90;49.10;;;;;;4992903;28;20450;-60
2021/03/10 11:01:39;;;;;;;12.03;7.07;;;7.90;48.80;;;;;;4980564;28;20505;-62
2021/03/10 11:04:04;;;;;;;13.50;7.20;;;7.80;48.40;;;;;;4998788;28;20439;-61
2021/03/10 11:06:30;;;;;;;10.70;7.03;;;7.80;48.70;;;;;;5000524;28;20176;-61
2021/03/10 11:08:56;;;;;;;10.73;6.63;;;7.80;47.70;;;;;;5002193;28;20568;-62
2021/03/10 11:11:22;;;;;;;12.73;6.70;;;7.80;47.90;;;;;;5001332;28;20196;-61
2021/03/10 11:13:48;;;;;;;11.47;6.40;;;7.80;47.40;;;;;;4982573;28;20307;-60
2021/03/10 11:16:13;;;;;;;8.93;5.67;;;7.90;46.50;;;;;;5000135;28;21024;-63
2021/03/10 11:18:39;;;;;;;8.57;5.70;;;7.90;46.30;;;;;;4982191;28;20208;-63
2021/03/10 11:21:05;;;;;;;8.67;5.50;;;8.10;45.60;;;;;;4979462;28;20227;-62
2021/03/10 11:23:30;;;;;;;10.90;5.80;;;8.30;45.60;;;;;;4991571;28;20227;-62
2021/03/10 11:25:58;;;;;;;9.70;5.77;;;8.50;43.80;;;;;;4994944;28;20193;-62
2021/03/10 11:28:24;;;;;;;14.07;5.80;;;8.60;44.70;;;;;;4996122;28;20187;-62
2021/03/10 11:30:50;;;;;;;10.40;6.10;;;8.60;45.00;;;;;;5003265;28;20449;-61
2021/03/10 11:33:16;;;;;;;13.57;6.33;;;8.50;44.80;;;;;;5002085;28;20652;-63
2021/03/10 11:35:42;;;;;;;8.90;5.60;;;8.40;45.30;;;;;;4995087;28;20494;-62
2021/03/10 11:38:08;;;;;;;11.27;6.07;;;8.30;45.00;;;;;;4983755;28;20521;-61
2021/03/10 11:40:33;;;;;;;10.17;6.90;;;8.00;44.50;;;;;;4984696;28;20711;-61
2021/03/10 11:42:59;;;;;;;16.00;7.40;;;7.90;45.60;;;;;;5004168;28;20219;-61
2021/03/10 11:45:25;;;;;;;12.73;7.40;;;7.80;46.80;;;;;;5003764;28;20786;-62
2021/03/10 11:47:51;;;;;;;11.00;6.70;;;7.80;46.70;;;;;;4978340;28;21040;-61
2021/03/10 11:50:16;;;;;;;12.73;6.57;;;7.70;46.80;;;;;;5005995;28;20190;-63
2021/03/10 11:52:42;;;;;;;14.50;7.50;;;7.80;46.80;;;;;;4983024;28;20581;-61
2021/03/10 11:55:10;;;;;;;12.27;7.53;;;7.80;46.90;;;;;;5001851;28;20220;-61
2021/03/10 11:57:37;;;;;;;11.63;6.80;;;7.80;46.90;;;;;;5000094;28;21049;-61
2021/03/10 12:00:05;;;;;;;15.10;7.30;;;7.80;46.60;;;;;;5002782;28;20442;-58
2021/03/10 12:02:31;;;;;;;10.00;6.37;;;7.80;46.40;;;;;;4993212;28;20455;-61
2021/03/10 12:04:57;;;;;;;12.00;6.40;;;7.80;46.10;;;;;;5003450;28;20855;-60
2021/03/10 12:07:23;;;;;;;15.83;7.10;;;7.80;45.90;;;;;;5007352;28;20184;-61
2021/03/10 12:09:49;;;;;;;11.33;6.50;;;7.90;46.10;;;;;;5005868;28;20661;-60
2021/03/10 12:12:15;;;;;;;15.40;7.07;;;7.90;46.00;;;;;;4987940;28;20467;-60
2021/03/10 12:14:41;;;;;;;13.77;6.90;;;7.90;46.20;;;;;;5003593;28;20501;-59
2021/03/10 12:17:07;;;;;;;14.27;7.37;;;7.90;46.10;;;;;;4978455;28;20267;-60
2021/03/10 12:19:33;;;;;;;10.63;6.53;;;7.90;45.20;;;;;;4968634;28;20203;-60
2021/03/10 12:21:59;;;;;;;10.60;6.90;;;7.90;45.40;;;;;;4979416;28;20475;-60
2021/03/10 12:24:25;;;;;;;9.73;5.73;;;7.90;45.40;;;;;;4978898;28;20181;-60
2021/03/10 12:26:51;;;;;;;10.70;6.50;;;8.00;45.40;;;;;;4986182;28;20439;-60
2021/03/10 12:29:16;;;;;;;11.60;6.80;;;8.20;44.80;;;;;;4971845;28;20202;-62
2021/03/10 12:31:42;;;;;;;11.10;7.13;;;8.30;44.10;;;;;;5002231;28;20848;-60
2021/03/10 12:34:08;;;;;;;10.97;6.30;;;8.50;43.90;;;;;;5004335;28;20188;-62
2021/03/10 12:36:33;;;;;;;9.83;6.43;;;8.50;43.80;;;;;;4998897;28;20189;-62
2021/03/10 12:39:00;;;;;;;12.23;6.70;;;8.60;43.40;;;;;;5003721;28;20224;-61
2021/03/10 12:41:26;;;;;;;8.83;5.50;;;8.80;43.10;;;;;;4999608;28;20557;-60
2021/03/10 12:43:51;;;;;;;12.93;6.47;;;9.00;42.50;;;;;;4966105;28;20462;-59
2021/03/10 12:46:17;;;;;;;9.20;6.30;;;9.30;42.10;;;;;;4995997;28;20720;-61
2021/03/10 12:48:43;;;;;;;12.27;6.73;;;9.40;41.70;;;;;;4985153;28;20192;-61